sensor_id;sensor_type;location;lat;lon;timestamp;P1;durP1;ratioP1;P2;durP2;ratioP2
8317;SDS011;4196;48.926;8.964;2023-12-07T00:00:13;11.83;;;6.80;;
8317;SDS011;4196;48.926;8.964;2023-12-07T00:03:00;11.67;;;6.57;;
8317;SDS011;4196;48.926;8.964;2023-12-07T00:05:47;14.50;;;7.00;;
8317;SDS011;4196;48.926;8.964;2023-12-07T00:08:33;10.77;;;5.77;;
8317;SDS011;4196;48.926;8.964;2023-12-07T00:11:21;12.90;;;5.90;;
8317;SDS011;4196;48.926;8.964;2023-12-07T00:14:09;11.63;;;7.43;;
8317;SDS011;4196;48.926;8.964;2023-12-07T00:16:55;10.73;;;6.07;;
8317;SDS011;4196;48.926;8.964;2023-12-07T00:19:42;12.57;;;7.53;;
8317;SDS011;4196;48.926;8.964;2023-12-07T00:22:28;10.23;;;6.43;;
8317;SDS011;4196;48.926;8.964;2023-12-07T00:25:15;17.33;;;7.10;;
8317;SDS011;4196;48.926;8.964;2023-12-07T00:28:02;16.20;;;7.73;;
8317;SDS011;4196;48.926;8.964;2023-12-07T00:30:50;13.13;;;7.67;;
8317;SDS011;4196;48.926;8.964;2023-12-07T00:33:36;13.60;;;7.47;;
8317;SDS011;4196;48.926;8.964;2023-12-07T00:36:23;16.30;;;8.13;;
8317;SDS011;4196;48.926;8.964;2023-12-07T00:39:09;10.30;;;7.00;;
8317;SDS011;4196;48.926;8.964;2023-12-07T00:41:56;15.37;;;7.63;;
8317;SDS011;4196;48.926;8.964;2023-12-07T00:44:43;13.93;;;8.13;;
8317;SDS011;4196;48.926;8.964;2023-12-07T00:47:31;14.00;;;7.13;;
8317;SDS011;4196;48.926;8.964;2023-12-07T00:50:17;17.93;;;8.47;;
8317;SDS011;4196;48.926;8.964;2023-12-07T00:53:04;14.50;;;7.07;;
8317;SDS011;4196;48.926;8.964;2023-12-07T00:55:50;17.60;;;8.50;;
8317;SDS011;4196;48.926;8.964;2023-12-07T00:58:37;11.77;;;8.23;;
8317;SDS011;4196;48.926;8.964;2023-12-07T01:01:24;17.10;;;8.97;;
8317;SDS011;4196;48.926;8.964;2023-12-07T01:04:11;14.00;;;7.40;;
8317;SDS011;4196;48.926;8.964;2023-12-07T01:06:58;12.53;;;6.77;;
8317;SDS011;4196;48.926;8.964;2023-12-07T01:09:45;15.23;;;8.17;;
8317;SDS011;4196;48.926;8.964;2023-12-07T01:12:32;11.13;;;6.70;;
8317;SDS011;4196;48.926;8.964;2023-12-07T01:15:18;9.67;;;5.93;;
8317;SDS011;4196;48.926;8.964;2023-12-07T01:18:05;14.57;;;7.73;;
8317;SDS011;4196;48.926;8.964;2023-12-07T01:20:52;15.33;;;8.67;;
8317;SDS011;4196;48.926;8.964;2023-12-07T01:23:38;18.53;;;8.70;;
8317;SDS011;4196;48.926;8.964;2023-12-07T01:26:25;15.50;;;8.47;;
8317;SDS011;4196;48.926;8.964;2023-12-07T01:29:11;14.53;;;8.80;;
8317;SDS011;4196;48.926;8.964;2023-12-07T01:32:00;17.80;;;9.83;;
8317;SDS011;4196;48.926;8.964;2023-12-07T01:34:46;16.50;;;9.57;;
8317;SDS011;4196;48.926;8.964;2023-12-07T01:37:33;17.83;;;8.83;;
8317;SDS011;4196;48.926;8.964;2023-12-07T01:40:19;14.90;;;8.97;;
8317;SDS011;4196;48.926;8.964;2023-12-07T01:43:06;15.67;;;9.13;;
8317;SDS011;4196;48.926;8.964;2023-12-07T01:45:53;14.70;;;8.90;;
8317;SDS011;4196;48.926;8.964;2023-12-07T01:48:42;16.37;;;9.37;;
8317;SDS011;4196;48.926;8.964;2023-12-07T01:51:29;15.50;;;8.23;;
8317;SDS011;4196;48.926;8.964;2023-12-07T01:54:17;16.50;;;8.53;;
8317;SDS011;4196;48.926;8.964;2023-12-07T01:57:03;16.57;;;9.00;;
8317;SDS011;4196;48.926;8.964;2023-12-07T01:59:50;22.23;;;8.83;;
8317;SDS011;4196;48.926;8.964;2023-12-07T02:02:37;19.97;;;9.77;;
8317;SDS011;4196;48.926;8.964;2023-12-07T02:05:24;16.37;;;8.50;;
8317;SDS011;4196;48.926;8.964;2023-12-07T02:08:11;16.57;;;8.40;;
8317;SDS011;4196;48.926;8.964;2023-12-07T02:10:58;13.67;;;8.87;;
8317;SDS011;4196;48.926;8.964;2023-12-07T02:13:44;20.50;;;9.27;;
8317;SDS011;4196;48.926;8.964;2023-12-07T02:16:38;17.27;;;8.63;;
8317;SDS011;4196;48.926;8.964;2023-12-07T02:22:42;14.80;;;8.33;;
8317;SDS011;4196;48.926;8.964;2023-12-07T02:25:40;17.60;;;9.23;;
8317;SDS011;4196;48.926;8.964;2023-12-07T02:28:40;16.53;;;9.27;;
8317;SDS011;4196;48.926;8.964;2023-12-07T02:31:27;15.00;;;8.63;;
8317;SDS011;4196;48.926;8.964;2023-12-07T02:34:14;14.47;;;9.10;;
8317;SDS011;4196;48.926;8.964;2023-12-07T02:37:01;15.50;;;7.73;;
8317;SDS011;4196;48.926;8.964;2023-12-07T02:39:50;15.83;;;8.57;;
8317;SDS011;4196;48.926;8.964;2023-12-07T02:42:38;13.40;;;7.87;;
8317;SDS011;4196;48.926;8.964;2023-12-07T02:45:27;15.80;;;9.07;;
8317;SDS011;4196;48.926;8.964;2023-12-07T02:48:13;17.03;;;8.63;;
8317;SDS011;4196;48.926;8.964;2023-12-07T02:51:00;18.70;;;8.77;;
8317;SDS011;4196;48.926;8.964;2023-12-07T02:53:47;16.87;;;8.47;;
8317;SDS011;4196;48.926;8.964;2023-12-07T02:56:33;15.43;;;8.57;;
8317;SDS011;4196;48.926;8.964;2023-12-07T02:59:19;18.20;;;9.33;;
8317;SDS011;4196;48.926;8.964;2023-12-07T03:02:06;23.40;;;11.50;;
8317;SDS011;4196;48.926;8.964;2023-12-07T03:04:52;15.07;;;8.80;;
8317;SDS011;4196;48.926;8.964;2023-12-07T03:07:39;16.70;;;8.33;;
8317;SDS011;4196;48.926;8.964;2023-12-07T03:10:25;16.77;;;8.70;;
8317;SDS011;4196;48.926;8.964;2023-12-07T03:13:11;17.03;;;8.90;;
8317;SDS011;4196;48.926;8.964;2023-12-07T03:15:58;16.33;;;9.10;;
8317;SDS011;4196;48.926;8.964;2023-12-07T03:18:45;17.23;;;8.40;;
8317;SDS011;4196;48.926;8.964;2023-12-07T03:21:31;19.77;;;9.83;;
8317;SDS011;4196;48.926;8.964;2023-12-07T03:24:18;15.70;;;9.47;;
8317;SDS011;4196;48.926;8.964;2023-12-07T03:27:04;15.67;;;10.17;;
8317;SDS011;4196;48.926;8.964;2023-12-07T03:29:51;19.37;;;10.10;;
8317;SDS011;4196;48.926;8.964;2023-12-07T03:32:38;24.03;;;11.50;;
8317;SDS011;4196;48.926;8.964;2023-12-07T03:35:24;18.50;;;10.00;;
8317;SDS011;4196;48.926;8.964;2023-12-07T03:38:11;17.37;;;8.97;;
8317;SDS011;4196;48.926;8.964;2023-12-07T03:40:57;15.93;;;9.23;;
8317;SDS011;4196;48.926;8.964;2023-12-07T03:43:44;18.40;;;10.03;;
8317;SDS011;4196;48.926;8.964;2023-12-07T03:46:30;15.60;;;8.97;;
8317;SDS011;4196;48.926;8.964;2023-12-07T03:49:17;16.00;;;8.57;;
8317;SDS011;4196;48.926;8.964;2023-12-07T03:52:03;14.93;;;7.77;;
8317;SDS011;4196;48.926;8.964;2023-12-07T03:54:51;15.60;;;8.33;;
8317;SDS011;4196;48.926;8.964;2023-12-07T03:57:37;14.30;;;8.60;;
8317;SDS011;4196;48.926;8.964;2023-12-07T04:00:24;12.70;;;7.30;;
8317;SDS011;4196;48.926;8.964;2023-12-07T04:03:11;21.03;;;9.43;;
8317;SDS011;4196;48.926;8.964;2023-12-07T04:05:57;14.70;;;8.07;;
8317;SDS011;4196;48.926;8.964;2023-12-07T04:08:44;18.40;;;8.27;;
8317;SDS011;4196;48.926;8.964;2023-12-07T04:11:31;14.30;;;8.07;;
8317;SDS011;4196;48.926;8.964;2023-12-07T04:14:17;11.83;;;7.37;;
8317;SDS011;4196;48.926;8.964;2023-12-07T04:17:03;18.70;;;9.70;;
8317;SDS011;4196;48.926;8.964;2023-12-07T04:19:50;16.37;;;9.50;;
8317;SDS011;4196;48.926;8.964;2023-12-07T04:22:36;16.80;;;9.20;;
8317;SDS011;4196;48.926;8.964;2023-12-07T04:25:23;17.10;;;9.43;;
8317;SDS011;4196;48.926;8.964;2023-12-07T04:28:10;15.57;;;9.20;;
8317;SDS011;4196;48.926;8.964;2023-12-07T04:30:56;13.97;;;8.40;;
8317;SDS011;4196;48.926;8.964;2023-12-07T04:33:43;14.43;;;7.77;;
8317;SDS011;4196;48.926;8.964;2023-12-07T04:36:29;14.67;;;7.90;;
8317;SDS011;4196;48.926;8.964;2023-12-07T04:39:16;15.27;;;9.20;;
8317;SDS011;4196;48.926;8.964;2023-12-07T04:42:02;13.60;;;7.23;;
8317;SDS011;4196;48.926;8.964;2023-12-07T04:44:49;18.93;;;8.30;;
8317;SDS011;4196;48.926;8.964;2023-12-07T04:47:36;10.73;;;6.53;;
8317;SDS011;4196;48.926;8.964;2023-12-07T04:50:22;12.00;;;7.63;;
8317;SDS011;4196;48.926;8.964;2023-12-07T04:53:09;16.03;;;7.90;;
8317;SDS011;4196;48.926;8.964;2023-12-07T04:55:56;16.80;;;8.17;;
8317;SDS011;4196;48.926;8.964;2023-12-07T04:58:42;18.70;;;8.37;;
8317;SDS011;4196;48.926;8.964;2023-12-07T05:01:28;18.27;;;8.47;;
8317;SDS011;4196;48.926;8.964;2023-12-07T05:04:15;18.23;;;8.67;;
8317;SDS011;4196;48.926;8.964;2023-12-07T05:07:02;16.07;;;7.90;;
8317;SDS011;4196;48.926;8.964;2023-12-07T05:09:50;17.43;;;8.60;;
8317;SDS011;4196;48.926;8.964;2023-12-07T05:12:37;13.27;;;7.97;;
8317;SDS011;4196;48.926;8.964;2023-12-07T05:15:23;15.17;;;8.87;;
8317;SDS011;4196;48.926;8.964;2023-12-07T05:18:10;14.30;;;7.83;;
8317;SDS011;4196;48.926;8.964;2023-12-07T05:20:57;17.07;;;7.63;;
8317;SDS011;4196;48.926;8.964;2023-12-07T05:23:43;15.20;;;8.20;;
8317;SDS011;4196;48.926;8.964;2023-12-07T05:26:30;14.27;;;8.93;;
8317;SDS011;4196;48.926;8.964;2023-12-07T05:29:19;15.13;;;8.27;;
8317;SDS011;4196;48.926;8.964;2023-12-07T05:32:05;13.87;;;8.03;;
8317;SDS011;4196;48.926;8.964;2023-12-07T05:34:52;12.50;;;8.63;;
8317;SDS011;4196;48.926;8.964;2023-12-07T05:37:38;17.43;;;8.20;;
8317;SDS011;4196;48.926;8.964;2023-12-07T05:40:25;16.93;;;8.63;;
8317;SDS011;4196;48.926;8.964;2023-12-07T05:43:12;14.37;;;9.17;;
8317;SDS011;4196;48.926;8.964;2023-12-07T05:46:00;16.77;;;9.00;;
8317;SDS011;4196;48.926;8.964;2023-12-07T05:48:46;13.13;;;7.93;;
8317;SDS011;4196;48.926;8.964;2023-12-07T05:51:33;13.37;;;8.37;;
8317;SDS011;4196;48.926;8.964;2023-12-07T05:54:20;15.50;;;8.30;;
8317;SDS011;4196;48.926;8.964;2023-12-07T05:57:09;20.57;;;8.97;;
8317;SDS011;4196;48.926;8.964;2023-12-07T05:59:56;17.13;;;8.77;;
8317;SDS011;4196;48.926;8.964;2023-12-07T06:02:42;20.77;;;9.83;;
8317;SDS011;4196;48.926;8.964;2023-12-07T06:05:29;18.43;;;9.37;;
8317;SDS011;4196;48.926;8.964;2023-12-07T06:08:15;19.57;;;9.30;;
8317;SDS011;4196;48.926;8.964;2023-12-07T06:11:01;18.17;;;8.00;;
8317;SDS011;4196;48.926;8.964;2023-12-07T06:13:48;13.23;;;7.60;;
8317;SDS011;4196;48.926;8.964;2023-12-07T06:16:34;14.87;;;9.17;;
8317;SDS011;4196;48.926;8.964;2023-12-07T06:19:21;21.40;;;9.53;;
8317;SDS011;4196;48.926;8.964;2023-12-07T06:22:08;13.63;;;7.80;;
8317;SDS011;4196;48.926;8.964;2023-12-07T06:24:55;16.83;;;8.87;;
8317;SDS011;4196;48.926;8.964;2023-12-07T06:27:42;16.37;;;8.40;;
8317;SDS011;4196;48.926;8.964;2023-12-07T06:30:29;15.57;;;7.83;;
8317;SDS011;4196;48.926;8.964;2023-12-07T06:33:15;13.63;;;7.90;;
8317;SDS011;4196;48.926;8.964;2023-12-07T06:36:01;14.07;;;7.30;;
8317;SDS011;4196;48.926;8.964;2023-12-07T06:38:49;14.23;;;8.57;;
8317;SDS011;4196;48.926;8.964;2023-12-07T06:41:36;16.10;;;8.50;;
8317;SDS011;4196;48.926;8.964;2023-12-07T06:44:22;14.03;;;8.37;;
8317;SDS011;4196;48.926;8.964;2023-12-07T06:47:09;15.53;;;9.47;;
8317;SDS011;4196;48.926;8.964;2023-12-07T06:49:55;19.10;;;8.67;;
8317;SDS011;4196;48.926;8.964;2023-12-07T06:52:42;18.23;;;8.87;;
8317;SDS011;4196;48.926;8.964;2023-12-07T06:55:29;18.90;;;9.03;;
8317;SDS011;4196;48.926;8.964;2023-12-07T06:58:15;19.63;;;10.23;;
8317;SDS011;4196;48.926;8.964;2023-12-07T07:01:01;19.53;;;11.47;;
8317;SDS011;4196;48.926;8.964;2023-12-07T07:03:48;20.10;;;10.80;;
8317;SDS011;4196;48.926;8.964;2023-12-07T07:06:35;22.60;;;11.20;;
8317;SDS011;4196;48.926;8.964;2023-12-07T07:09:21;23.33;;;11.20;;
8317;SDS011;4196;48.926;8.964;2023-12-07T07:12:07;28.80;;;13.20;;
8317;SDS011;4196;48.926;8.964;2023-12-07T07:14:54;23.83;;;11.23;;
8317;SDS011;4196;48.926;8.964;2023-12-07T07:17:41;20.30;;;11.27;;
8317;SDS011;4196;48.926;8.964;2023-12-07T07:20:28;21.37;;;11.50;;
8317;SDS011;4196;48.926;8.964;2023-12-07T07:23:15;20.60;;;11.77;;
8317;SDS011;4196;48.926;8.964;2023-12-07T07:26:01;21.07;;;9.33;;
8317;SDS011;4196;48.926;8.964;2023-12-07T07:28:48;19.17;;;9.93;;
8317;SDS011;4196;48.926;8.964;2023-12-07T07:31:36;23.17;;;10.87;;
8317;SDS011;4196;48.926;8.964;2023-12-07T07:34:22;16.43;;;9.47;;
8317;SDS011;4196;48.926;8.964;2023-12-07T07:37:09;19.13;;;10.03;;
8317;SDS011;4196;48.926;8.964;2023-12-07T07:39:56;18.23;;;10.27;;
8317;SDS011;4196;48.926;8.964;2023-12-07T07:42:42;18.67;;;9.83;;
8317;SDS011;4196;48.926;8.964;2023-12-07T07:45:29;19.13;;;9.80;;
8317;SDS011;4196;48.926;8.964;2023-12-07T07:48:15;19.30;;;9.63;;
8317;SDS011;4196;48.926;8.964;2023-12-07T07:51:02;20.13;;;10.13;;
8317;SDS011;4196;48.926;8.964;2023-12-07T07:53:50;21.10;;;10.97;;
8317;SDS011;4196;48.926;8.964;2023-12-07T07:56:36;23.80;;;12.03;;
8317;SDS011;4196;48.926;8.964;2023-12-07T07:59:23;21.53;;;10.43;;
8317;SDS011;4196;48.926;8.964;2023-12-07T08:02:09;25.03;;;10.37;;
8317;SDS011;4196;48.926;8.964;2023-12-07T08:04:56;22.70;;;10.33;;
8317;SDS011;4196;48.926;8.964;2023-12-07T08:07:43;24.20;;;11.40;;
8317;SDS011;4196;48.926;8.964;2023-12-07T08:10:29;18.33;;;10.67;;
8317;SDS011;4196;48.926;8.964;2023-12-07T08:13:16;23.00;;;11.33;;
8317;SDS011;4196;48.926;8.964;2023-12-07T08:16:06;27.70;;;12.53;;
8317;SDS011;4196;48.926;8.964;2023-12-07T08:18:55;21.73;;;12.43;;
8317;SDS011;4196;48.926;8.964;2023-12-07T08:21:42;23.30;;;12.80;;
8317;SDS011;4196;48.926;8.964;2023-12-07T08:24:28;22.83;;;12.83;;
8317;SDS011;4196;48.926;8.964;2023-12-07T08:27:15;22.97;;;13.00;;
8317;SDS011;4196;48.926;8.964;2023-12-07T08:30:02;23.13;;;13.90;;
8317;SDS011;4196;48.926;8.964;2023-12-07T08:32:48;23.47;;;12.77;;
8317;SDS011;4196;48.926;8.964;2023-12-07T08:35:35;22.20;;;13.83;;
8317;SDS011;4196;48.926;8.964;2023-12-07T08:38:22;21.03;;;11.60;;
8317;SDS011;4196;48.926;8.964;2023-12-07T08:41:09;21.53;;;13.43;;
8317;SDS011;4196;48.926;8.964;2023-12-07T08:43:55;23.37;;;11.87;;
8317;SDS011;4196;48.926;8.964;2023-12-07T08:46:42;20.40;;;11.87;;
8317;SDS011;4196;48.926;8.964;2023-12-07T08:49:31;19.87;;;11.03;;
8317;SDS011;4196;48.926;8.964;2023-12-07T08:52:18;18.03;;;10.13;;
8317;SDS011;4196;48.926;8.964;2023-12-07T08:55:21;19.40;;;10.63;;
8317;SDS011;4196;48.926;8.964;2023-12-07T08:58:07;23.17;;;11.33;;
8317;SDS011;4196;48.926;8.964;2023-12-07T09:00:53;20.27;;;10.73;;
8317;SDS011;4196;48.926;8.964;2023-12-07T09:03:40;21.40;;;11.30;;
8317;SDS011;4196;48.926;8.964;2023-12-07T09:06:27;19.83;;;11.67;;
8317;SDS011;4196;48.926;8.964;2023-12-07T09:09:14;17.83;;;10.90;;
8317;SDS011;4196;48.926;8.964;2023-12-07T09:12:00;21.37;;;12.00;;
8317;SDS011;4196;48.926;8.964;2023-12-07T09:14:47;20.30;;;11.90;;
8317;SDS011;4196;48.926;8.964;2023-12-07T09:17:34;24.90;;;11.60;;
8317;SDS011;4196;48.926;8.964;2023-12-07T09:20:21;20.23;;;10.93;;
8317;SDS011;4196;48.926;8.964;2023-12-07T09:23:07;20.90;;;11.17;;
8317;SDS011;4196;48.926;8.964;2023-12-07T09:25:56;16.60;;;10.10;;
8317;SDS011;4196;48.926;8.964;2023-12-07T09:28:43;18.90;;;10.47;;
8317;SDS011;4196;48.926;8.964;2023-12-07T09:31:30;18.77;;;9.63;;
8317;SDS011;4196;48.926;8.964;2023-12-07T09:34:16;19.83;;;11.23;;
8317;SDS011;4196;48.926;8.964;2023-12-07T09:37:10;15.37;;;9.33;;
8317;SDS011;4196;48.926;8.964;2023-12-07T09:39:59;20.77;;;10.00;;
8317;SDS011;4196;48.926;8.964;2023-12-07T09:42:46;19.27;;;10.03;;
8317;SDS011;4196;48.926;8.964;2023-12-07T09:45:34;20.27;;;11.10;;
8317;SDS011;4196;48.926;8.964;2023-12-07T09:48:21;16.40;;;9.40;;
8317;SDS011;4196;48.926;8.964;2023-12-07T09:51:09;22.90;;;11.87;;
8317;SDS011;4196;48.926;8.964;2023-12-07T09:53:57;18.17;;;10.20;;
8317;SDS011;4196;48.926;8.964;2023-12-07T09:56:45;17.00;;;10.17;;
8317;SDS011;4196;48.926;8.964;2023-12-07T09:59:32;20.40;;;11.10;;
8317;SDS011;4196;48.926;8.964;2023-12-07T10:02:18;17.40;;;9.60;;
8317;SDS011;4196;48.926;8.964;2023-12-07T10:05:05;15.70;;;10.10;;
8317;SDS011;4196;48.926;8.964;2023-12-07T10:07:53;18.70;;;9.90;;
8317;SDS011;4196;48.926;8.964;2023-12-07T10:10:40;17.03;;;10.67;;
8317;SDS011;4196;48.926;8.964;2023-12-07T10:13:28;34.43;;;10.83;;
8317;SDS011;4196;48.926;8.964;2023-12-07T10:16:15;16.83;;;9.80;;
8317;SDS011;4196;48.926;8.964;2023-12-07T10:19:13;17.97;;;9.73;;
8317;SDS011;4196;48.926;8.964;2023-12-07T10:22:17;16.67;;;10.50;;
8317;SDS011;4196;48.926;8.964;2023-12-07T10:25:04;15.30;;;8.20;;
8317;SDS011;4196;48.926;8.964;2023-12-07T10:27:50;17.17;;;9.33;;
8317;SDS011;4196;48.926;8.964;2023-12-07T10:30:38;15.30;;;7.57;;
8317;SDS011;4196;48.926;8.964;2023-12-07T10:33:29;11.87;;;6.63;;
8317;SDS011;4196;48.926;8.964;2023-12-07T10:36:16;13.57;;;6.97;;
8317;SDS011;4196;48.926;8.964;2023-12-07T10:39:03;17.17;;;8.77;;
8317;SDS011;4196;48.926;8.964;2023-12-07T10:42:00;12.40;;;7.03;;
8317;SDS011;4196;48.926;8.964;2023-12-07T10:44:49;12.60;;;7.53;;
8317;SDS011;4196;48.926;8.964;2023-12-07T10:47:37;13.37;;;6.53;;
8317;SDS011;4196;48.926;8.964;2023-12-07T10:50:24;10.13;;;6.63;;
8317;SDS011;4196;48.926;8.964;2023-12-07T10:53:19;13.70;;;7.17;;
8317;SDS011;4196;48.926;8.964;2023-12-07T10:56:27;10.13;;;6.20;;
8317;SDS011;4196;48.926;8.964;2023-12-07T10:59:19;10.60;;;6.27;;
8317;SDS011;4196;48.926;8.964;2023-12-07T11:02:15;11.43;;;5.77;;
8317;SDS011;4196;48.926;8.964;2023-12-07T11:05:06;11.67;;;6.67;;
8317;SDS011;4196;48.926;8.964;2023-12-07T11:08:15;11.00;;;6.93;;
8317;SDS011;4196;48.926;8.964;2023-12-07T11:11:15;16.30;;;6.27;;
8317;SDS011;4196;48.926;8.964;2023-12-07T11:14:12;17.63;;;6.80;;
8317;SDS011;4196;48.926;8.964;2023-12-07T11:17:01;9.97;;;5.90;;
8317;SDS011;4196;48.926;8.964;2023-12-07T11:19:50;12.10;;;6.20;;
8317;SDS011;4196;48.926;8.964;2023-12-07T11:22:37;12.47;;;7.00;;
8317;SDS011;4196;48.926;8.964;2023-12-07T11:25:27;13.57;;;7.63;;
8317;SDS011;4196;48.926;8.964;2023-12-07T11:28:14;12.97;;;7.43;;
8317;SDS011;4196;48.926;8.964;2023-12-07T11:31:02;12.73;;;6.83;;
8317;SDS011;4196;48.926;8.964;2023-12-07T11:33:49;14.63;;;6.97;;
8317;SDS011;4196;48.926;8.964;2023-12-07T11:36:35;11.93;;;7.30;;
8317;SDS011;4196;48.926;8.964;2023-12-07T11:39:23;12.00;;;7.43;;
8317;SDS011;4196;48.926;8.964;2023-12-07T11:42:15;15.43;;;7.50;;
8317;SDS011;4196;48.926;8.964;2023-12-07T11:45:03;10.80;;;7.47;;
8317;SDS011;4196;48.926;8.964;2023-12-07T11:48:08;15.80;;;7.43;;
8317;SDS011;4196;48.926;8.964;2023-12-07T11:51:02;11.00;;;6.63;;
8317;SDS011;4196;48.926;8.964;2023-12-07T11:53:50;10.70;;;5.70;;
8317;SDS011;4196;48.926;8.964;2023-12-07T11:56:37;12.30;;;5.57;;
8317;SDS011;4196;48.926;8.964;2023-12-07T11:59:23;9.23;;;4.90;;
8317;SDS011;4196;48.926;8.964;2023-12-07T12:02:19;10.00;;;5.13;;
8317;SDS011;4196;48.926;8.964;2023-12-07T12:05:06;6.83;;;4.57;;
8317;SDS011;4196;48.926;8.964;2023-12-07T12:07:53;14.37;;;5.73;;
8317;SDS011;4196;48.926;8.964;2023-12-07T12:10:41;8.53;;;4.87;;
8317;SDS011;4196;48.926;8.964;2023-12-07T12:13:35;10.63;;;5.30;;
8317;SDS011;4196;48.926;8.964;2023-12-07T12:16:23;8.97;;;4.80;;
8317;SDS011;4196;48.926;8.964;2023-12-07T12:19:10;10.90;;;5.50;;
8317;SDS011;4196;48.926;8.964;2023-12-07T12:22:02;6.00;;;4.80;;
8317;SDS011;4196;48.926;8.964;2023-12-07T12:24:52;8.13;;;5.27;;
8317;SDS011;4196;48.926;8.964;2023-12-07T12:27:39;6.10;;;4.30;;
8317;SDS011;4196;48.926;8.964;2023-12-07T12:30:26;7.47;;;4.40;;
8317;SDS011;4196;48.926;8.964;2023-12-07T12:33:13;6.23;;;3.83;;
8317;SDS011;4196;48.926;8.964;2023-12-07T12:36:02;5.23;;;3.73;;
8317;SDS011;4196;48.926;8.964;2023-12-07T12:38:53;6.83;;;4.73;;
8317;SDS011;4196;48.926;8.964;2023-12-07T12:41:40;5.03;;;3.47;;
8317;SDS011;4196;48.926;8.964;2023-12-07T12:44:26;4.47;;;3.50;;
8317;SDS011;4196;48.926;8.964;2023-12-07T12:47:22;6.47;;;4.27;;
8317;SDS011;4196;48.926;8.964;2023-12-07T12:50:10;9.00;;;4.17;;
8317;SDS011;4196;48.926;8.964;2023-12-07T12:53:17;9.00;;;3.73;;
8317;SDS011;4196;48.926;8.964;2023-12-07T12:56:04;7.20;;;4.10;;
8317;SDS011;4196;48.926;8.964;2023-12-07T12:58:51;5.73;;;3.67;;
8317;SDS011;4196;48.926;8.964;2023-12-07T13:01:39;4.33;;;3.10;;
8317;SDS011;4196;48.926;8.964;2023-12-07T13:04:25;5.70;;;2.97;;
8317;SDS011;4196;48.926;8.964;2023-12-07T13:07:12;4.33;;;2.93;;
8317;SDS011;4196;48.926;8.964;2023-12-07T13:09:59;4.57;;;2.97;;
8317;SDS011;4196;48.926;8.964;2023-12-07T13:12:45;6.83;;;3.63;;
8317;SDS011;4196;48.926;8.964;2023-12-07T13:15:32;4.07;;;3.43;;
8317;SDS011;4196;48.926;8.964;2023-12-07T13:18:19;4.13;;;3.10;;
8317;SDS011;4196;48.926;8.964;2023-12-07T13:21:06;3.63;;;2.87;;
8317;SDS011;4196;48.926;8.964;2023-12-07T13:23:52;8.10;;;2.90;;
8317;SDS011;4196;48.926;8.964;2023-12-07T13:26:39;3.60;;;2.23;;
8317;SDS011;4196;48.926;8.964;2023-12-07T13:29:25;4.77;;;2.73;;
8317;SDS011;4196;48.926;8.964;2023-12-07T13:32:21;6.67;;;3.20;;
8317;SDS011;4196;48.926;8.964;2023-12-07T13:35:08;4.93;;;2.97;;
8317;SDS011;4196;48.926;8.964;2023-12-07T13:37:55;6.60;;;3.00;;
8317;SDS011;4196;48.926;8.964;2023-12-07T13:40:42;5.80;;;3.23;;
8317;SDS011;4196;48.926;8.964;2023-12-07T13:43:28;3.70;;;2.47;;
8317;SDS011;4196;48.926;8.964;2023-12-07T13:46:18;3.40;;;2.73;;
8317;SDS011;4196;48.926;8.964;2023-12-07T13:49:05;5.17;;;2.70;;
8317;SDS011;4196;48.926;8.964;2023-12-07T13:51:56;6.40;;;2.93;;
8317;SDS011;4196;48.926;8.964;2023-12-07T13:54:43;4.03;;;2.60;;
8317;SDS011;4196;48.926;8.964;2023-12-07T13:57:39;4.87;;;2.53;;
8317;SDS011;4196;48.926;8.964;2023-12-07T14:00:26;3.57;;;3.03;;
8317;SDS011;4196;48.926;8.964;2023-12-07T14:03:13;5.33;;;2.97;;
8317;SDS011;4196;48.926;8.964;2023-12-07T14:06:00;3.27;;;2.60;;
8317;SDS011;4196;48.926;8.964;2023-12-07T14:09:00;3.57;;;2.30;;
8317;SDS011;4196;48.926;8.964;2023-12-07T14:11:47;4.43;;;2.83;;
8317;SDS011;4196;48.926;8.964;2023-12-07T14:14:34;2.77;;;2.33;;
8317;SDS011;4196;48.926;8.964;2023-12-07T14:17:21;6.70;;;3.00;;
8317;SDS011;4196;48.926;8.964;2023-12-07T14:20:22;3.87;;;2.83;;
8317;SDS011;4196;48.926;8.964;2023-12-07T14:23:31;4.17;;;2.80;;
8317;SDS011;4196;48.926;8.964;2023-12-07T14:26:18;4.10;;;2.60;;
8317;SDS011;4196;48.926;8.964;2023-12-07T14:29:04;6.23;;;3.07;;
8317;SDS011;4196;48.926;8.964;2023-12-07T14:31:51;4.53;;;2.87;;
8317;SDS011;4196;48.926;8.964;2023-12-07T14:34:37;3.37;;;2.60;;
8317;SDS011;4196;48.926;8.964;2023-12-07T14:37:24;5.17;;;3.63;;
8317;SDS011;4196;48.926;8.964;2023-12-07T14:40:14;6.90;;;3.43;;
8317;SDS011;4196;48.926;8.964;2023-12-07T14:43:03;6.57;;;3.10;;
8317;SDS011;4196;48.926;8.964;2023-12-07T14:45:50;4.63;;;3.17;;
8317;SDS011;4196;48.926;8.964;2023-12-07T14:48:36;9.83;;;4.07;;
8317;SDS011;4196;48.926;8.964;2023-12-07T14:51:23;5.03;;;3.20;;
8317;SDS011;4196;48.926;8.964;2023-12-07T14:54:10;5.37;;;3.17;;
8317;SDS011;4196;48.926;8.964;2023-12-07T14:57:00;10.17;;;3.43;;
8317;SDS011;4196;48.926;8.964;2023-12-07T14:59:49;5.73;;;2.90;;
8317;SDS011;4196;48.926;8.964;2023-12-07T15:02:36;7.60;;;3.13;;
8317;SDS011;4196;48.926;8.964;2023-12-07T15:05:22;4.70;;;2.80;;
8317;SDS011;4196;48.926;8.964;2023-12-07T15:08:09;5.20;;;3.30;;
8317;SDS011;4196;48.926;8.964;2023-12-07T15:10:57;5.13;;;3.27;;
8317;SDS011;4196;48.926;8.964;2023-12-07T15:13:43;5.90;;;3.17;;
8317;SDS011;4196;48.926;8.964;2023-12-07T15:16:30;7.87;;;3.13;;
8317;SDS011;4196;48.926;8.964;2023-12-07T15:19:17;4.33;;;2.83;;
8317;SDS011;4196;48.926;8.964;2023-12-07T15:22:04;7.63;;;3.27;;
8317;SDS011;4196;48.926;8.964;2023-12-07T15:24:51;5.83;;;3.20;;
8317;SDS011;4196;48.926;8.964;2023-12-07T15:27:37;9.23;;;4.47;;
8317;SDS011;4196;48.926;8.964;2023-12-07T15:30:24;6.97;;;3.53;;
8317;SDS011;4196;48.926;8.964;2023-12-07T15:33:12;6.50;;;3.20;;
8317;SDS011;4196;48.926;8.964;2023-12-07T15:35:58;7.10;;;3.53;;
8317;SDS011;4196;48.926;8.964;2023-12-07T15:38:46;8.70;;;4.03;;
8317;SDS011;4196;48.926;8.964;2023-12-07T15:41:32;7.17;;;4.30;;
8317;SDS011;4196;48.926;8.964;2023-12-07T15:44:19;6.87;;;3.53;;
8317;SDS011;4196;48.926;8.964;2023-12-07T15:47:07;7.93;;;4.00;;
8317;SDS011;4196;48.926;8.964;2023-12-07T15:49:54;6.20;;;3.37;;
8317;SDS011;4196;48.926;8.964;2023-12-07T15:52:40;8.97;;;4.03;;
8317;SDS011;4196;48.926;8.964;2023-12-07T15:55:27;5.60;;;3.00;;
8317;SDS011;4196;48.926;8.964;2023-12-07T15:58:13;7.13;;;3.57;;
8317;SDS011;4196;48.926;8.964;2023-12-07T16:01:03;7.37;;;3.67;;
8317;SDS011;4196;48.926;8.964;2023-12-07T16:03:50;6.00;;;3.80;;
8317;SDS011;4196;48.926;8.964;2023-12-07T16:06:36;9.77;;;3.60;;
8317;SDS011;4196;48.926;8.964;2023-12-07T16:09:23;5.63;;;3.20;;
8317;SDS011;4196;48.926;8.964;2023-12-07T16:12:10;7.77;;;4.40;;
8317;SDS011;4196;48.926;8.964;2023-12-07T16:14:57;11.33;;;4.83;;
8317;SDS011;4196;48.926;8.964;2023-12-07T16:17:43;8.40;;;4.60;;
8317;SDS011;4196;48.926;8.964;2023-12-07T16:20:30;8.00;;;5.37;;
8317;SDS011;4196;48.926;8.964;2023-12-07T16:23:17;7.73;;;5.00;;
8317;SDS011;4196;48.926;8.964;2023-12-07T16:26:03;7.67;;;4.30;;
8317;SDS011;4196;48.926;8.964;2023-12-07T16:28:50;12.87;;;4.53;;
8317;SDS011;4196;48.926;8.964;2023-12-07T16:31:36;8.67;;;5.03;;
8317;SDS011;4196;48.926;8.964;2023-12-07T16:34:23;11.87;;;4.17;;
8317;SDS011;4196;48.926;8.964;2023-12-07T16:37:09;5.17;;;2.60;;
8317;SDS011;4196;48.926;8.964;2023-12-07T16:39:56;3.50;;;2.57;;
8317;SDS011;4196;48.926;8.964;2023-12-07T16:42:43;5.90;;;3.47;;
8317;SDS011;4196;48.926;8.964;2023-12-07T16:45:29;4.23;;;2.90;;
8317;SDS011;4196;48.926;8.964;2023-12-07T16:48:17;5.97;;;3.57;;
8317;SDS011;4196;48.926;8.964;2023-12-07T16:51:04;4.47;;;3.07;;
8317;SDS011;4196;48.926;8.964;2023-12-07T16:53:51;5.17;;;3.13;;
8317;SDS011;4196;48.926;8.964;2023-12-07T16:56:37;5.73;;;2.60;;
8317;SDS011;4196;48.926;8.964;2023-12-07T16:59:24;6.93;;;3.37;;
8317;SDS011;4196;48.926;8.964;2023-12-07T17:02:11;5.37;;;3.10;;
8317;SDS011;4196;48.926;8.964;2023-12-07T17:04:57;9.80;;;4.00;;
8317;SDS011;4196;48.926;8.964;2023-12-07T17:07:43;4.47;;;2.70;;
8317;SDS011;4196;48.926;8.964;2023-12-07T17:10:30;6.87;;;3.03;;